Time;durP1;ratioP1;P1;durP2;ratioP2;P2;SDS_P1;SDS_P2;PMS_P1;PMS_P2;Temp;Humidity;BMP_temperature;BMP_pressure;BME280_temperature;BME280_humidity;BME280_pressure;Samples;Min_cycle;Max_cycle;Signal;HPM_P1;HPM_P2
2023/03/26 00:00:52;;;;;;;0.83;0.80;;;2.50;99.90;3.70;96365.00;;;;5008332;28;20964;-69
2023/03/26 00:03:43;;;;;;;5.37;0.90;;;2.40;99.90;3.80;96363.00;;;;5000790;28;21013;-71
2023/03/26 00:06:37;;;;;;;1.00;0.80;;;2.50;99.90;4.00;96363.00;;;;5008568;28;20440;-71
2023/03/26 00:09:28;;;;;;;1.13;1.00;;;2.60;99.90;4.00;96359.00;;;;5010052;28;20455;-71
2023/03/26 00:12:18;;;;;;;0.90;0.90;;;2.70;99.90;3.70;96350.00;;;;5005690;28;20531;-71
2023/03/26 00:15:09;;;;;;;0.93;0.77;;;2.70;99.90;3.30;96357.00;;;;5005320;28;20437;-70
2023/03/26 00:17:59;;;;;;;0.60;0.60;;;2.60;99.90;3.50;96355.00;;;;5004907;28;20791;-69
2023/03/26 00:20:48;;;;;;;1.07;0.90;;;2.50;99.90;3.80;96362.00;;;;5008904;28;20450;-69
2023/03/26 00:23:37;;;;;;;1.30;1.20;;;2.50;99.90;3.90;96364.00;;;;5004547;28;20464;-69
2023/03/26 00:26:28;;;;;;;0.80;0.80;;;2.50;99.90;4.00;96354.00;;;;5009496;28;20949;-69
2023/03/26 00:29:18;;;;;;;0.80;0.80;;;2.60;99.90;3.90;96366.00;;;;5009011;28;20445;-69
2023/03/26 00:32:07;;;;;;;0.80;0.80;;;2.60;99.90;3.60;96351.00;;;;5010261;28;20446;-69
2023/03/26 00:34:56;;;;;;;3.20;1.00;;;2.60;99.90;3.60;96345.00;;;;5006262;28;20488;-69
2023/03/26 00:37:45;;;;;;;0.90;0.90;;;2.60;99.90;3.50;96360.00;;;;5007806;28;20516;-69
2023/03/26 00:40:35;;;;;;;6.03;0.70;;;2.50;99.90;3.70;96358.00;;;;5003810;28;20437;-70
2023/03/26 00:43:25;;;;;;;0.50;0.50;;;2.50;99.90;3.70;96343.00;;;;5003999;28;20430;-69
2023/03/26 00:46:16;;;;;;;1.17;0.83;;;2.60;99.90;3.50;96341.00;;;;5007841;28;20426;-69
2023/03/26 00:49:09;;;;;;;0.40;0.40;;;2.50;99.90;3.60;96352.00;;;;5007299;28;20437;-69
2023/03/26 00:51:58;;;;;;;1.03;0.90;;;2.40;99.90;3.40;96354.00;;;;5007525;28;20480;-69
2023/03/26 00:54:46;;;;;;;0.73;0.60;;;2.40;99.90;2.90;96339.00;;;;5008341;28;20430;-68
2023/03/26 00:57:36;;;;;;;2.00;1.07;;;2.30;99.90;2.90;96335.00;;;;5003799;28;20488;-67
2023/03/26 01:00:33;;;;;;;0.70;0.70;;;2.20;99.90;3.00;96343.00;;;;5003868;28;21014;-67
2023/03/26 01:03:24;;;;;;;0.80;0.80;;;2.20;99.90;3.00;96339.00;;;;5006617;28;20476;-67
2023/03/26 01:06:19;;;;;;;0.67;0.67;;;2.10;99.90;3.00;96334.00;;;;5000706;28;20498;-68
2023/03/26 01:09:15;;;;;;;3.47;0.70;;;2.10;99.90;2.80;96327.00;;;;5005626;28;20504;-68
2023/03/26 01:12:09;;;;;;;1.07;1.03;;;2.20;99.90;3.10;96334.00;;;;5008293;28;20516;-68
2023/03/26 01:15:01;;;;;;;11.10;1.00;;;2.10;99.90;2.40;96321.00;;;;5006580;28;20432;-69
2023/03/26 01:17:50;;;;;;;1.50;1.07;;;2.00;99.90;2.70;96313.00;;;;5006063;28;20437;-70
2023/03/26 01:20:45;;;;;;;1.37;0.97;;;1.90;99.90;3.10;96308.00;;;;5002986;28;20437;-69
2023/03/26 01:23:45;;;;;;;0.70;0.70;;;1.90;99.90;2.90;96302.00;;;;5012582;28;20430;-69
2023/03/26 01:26:58;;;;;;;0.70;0.70;;;1.90;99.90;2.30;96290.00;;;;5016827;28;20472;-69
2023/03/26 01:29:54;;;;;;;0.70;0.70;;;1.80;99.90;3.00;96301.00;;;;5016800;28;20948;-69
2023/03/26 01:32:59;;;;;;;0.80;0.67;;;1.80;99.90;3.00;96305.00;;;;5020605;28;20536;-70
2023/03/26 01:35:56;;;;;;;0.57;0.57;;;1.90;99.90;2.80;96294.00;;;;5010766;28;20939;-69
2023/03/26 01:38:53;;;;;;;1.07;0.60;;;1.90;99.90;3.10;96295.00;;;;5016412;28;20441;-69
2023/03/26 01:41:47;;;;;;;0.50;0.50;;;1.90;99.90;3.00;96302.00;;;;5015079;28;20436;-69
2023/03/26 01:44:45;;;;;;;1.20;1.07;;;1.90;99.90;2.70;96283.00;;;;5006238;28;20479;-69
2023/03/26 01:47:35;;;;;;;0.43;0.43;;;1.80;99.90;2.50;96281.00;;;;5006794;28;20472;-69
2023/03/26 01:50:24;;;;;;;0.73;0.50;;;1.70;99.90;2.50;96275.00;;;;5007108;28;20452;-69
2023/03/26 01:53:14;;;;;;;0.90;0.60;;;1.70;99.90;2.70;96265.00;;;;5006803;28;20484;-69
2023/03/26 01:56:16;;;;;;;1.37;0.80;;;1.60;99.90;2.80;96273.00;;;;5006507;28;20440;-69
2023/03/26 01:59:28;;;;;;;0.60;0.60;;;1.60;99.90;2.60;96263.00;;;;5005797;28;20469;-69
2023/03/26 02:02:26;;;;;;;0.50;0.50;;;1.60;99.90;2.40;96257.00;;;;5007756;28;20508;-68
2023/03/26 02:05:22;;;;;;;1.10;0.80;;;1.60;99.90;1.80;96259.00;;;;5009880;28;20432;-68
2023/03/26 02:08:19;;;;;;;1.23;0.60;;;1.50;99.90;2.20;96252.00;;;;5003700;28;20505;-68
2023/03/26 02:11:13;;;;;;;0.80;0.80;;;1.40;99.90;2.60;96260.00;;;;5001953;28;20469;-68
2023/03/26 02:14:03;;;;;;;2.00;1.03;;;1.40;99.90;2.80;96263.00;;;;5001610;28;20425;-68
2023/03/26 02:16:55;;;;;;;0.97;0.60;;;1.50;99.90;2.50;96265.00;;;;5006792;28;20445;-69
2023/03/26 02:19:43;;;;;;;0.50;0.50;;;1.50;99.90;2.00;96257.00;;;;5008022;28;20548;-69
2023/03/26 02:22:32;;;;;;;1.60;0.80;;;1.40;99.90;2.10;96246.00;;;;5010829;28;20551;-68
2023/03/26 02:25:21;;;;;;;0.67;0.67;;;1.30;99.90;2.50;96264.00;;;;5010269;28;20462;-69
2023/03/26 02:28:10;;;;;;;0.57;0.57;;;1.30;99.90;2.30;96248.00;;;;5008534;28;20469;-69
2023/03/26 02:31:00;;;;;;;0.60;0.60;;;1.30;99.90;1.90;96255.00;;;;5007922;28;20480;-69
2023/03/26 02:33:50;;;;;;;0.60;0.60;;;1.20;99.90;1.60;96255.00;;;;5005690;28;20497;-68
2023/03/26 02:36:41;;;;;;;0.83;0.80;;;1.10;99.90;1.60;96270.00;;;;5006903;28;20944;-68
2023/03/26 02:39:30;;;;;;;0.60;0.60;;;1.00;99.90;2.00;96258.00;;;;5010554;28;20460;-68
2023/03/26 02:42:19;;;;;;;0.90;0.90;;;1.00;99.90;2.00;96250.00;;;;5009978;28;20437;-68
2023/03/26 02:45:08;;;;;;;0.60;0.60;;;1.10;99.90;1.90;96262.00;;;;5008112;28;20492;-68
2023/03/26 02:47:59;;;;;;;0.70;0.70;;;1.00;99.90;1.60;96275.00;;;;5002873;28;20476;-68
2023/03/26 02:50:53;;;;;;;0.70;0.70;;;1.00;99.90;1.70;96282.00;;;;5010153;28;20452;-69
2023/03/26 02:53:41;;;;;;;0.63;0.63;;;0.90;99.90;2.00;96283.00;;;;5005143;28;20476;-68
2023/03/26 02:56:30;;;;;;;0.93;0.90;;;0.90;99.90;2.30;96285.00;;;;5005384;28;20440;-68
2023/03/26 02:59:19;;;;;;;0.50;0.50;;;1.00;99.90;2.40;96279.00;;;;5002443;28;20468;-69
2023/03/26 03:02:08;;;;;;;0.60;0.60;;;1.10;99.90;2.40;96286.00;;;;5006946;28;20999;-68
2023/03/26 03:05:00;;;;;;;1.33;0.60;;;1.20;99.90;2.40;96277.00;;;;5010210;28;20437;-68
2023/03/26 03:07:50;;;;;;;0.70;0.70;;;1.20;99.90;2.20;96279.00;;;;5006910;28;20437;-68
2023/03/26 03:10:40;;;;;;;0.73;0.73;;;1.20;99.90;1.60;96278.00;;;;5008018;28;20479;-68
2023/03/26 03:13:29;;;;;;;0.50;0.50;;;1.10;99.90;1.50;96277.00;;;;5003704;28;21191;-68
2023/03/26 03:16:18;;;;;;;0.60;0.60;;;1.00;99.90;1.60;96279.00;;;;5006003;28;20450;-68
2023/03/26 03:19:07;;;;;;;1.00;0.93;;;0.90;99.90;1.70;96278.00;;;;5009001;28;20438;-68
2023/03/26 03:21:56;;;;;;;0.63;0.63;;;0.90;99.90;1.80;96295.00;;;;5005778;28;20932;-68
2023/03/26 03:24:46;;;;;;;6.53;1.20;;;0.80;99.90;1.70;96272.00;;;;4997445;28;20584;-69
2023/03/26 03:27:38;;;;;;;0.80;0.80;;;0.80;99.90;1.50;96271.00;;;;5003573;28;20434;-68
2023/03/26 03:30:26;;;;;;;0.60;0.60;;;0.80;99.90;1.60;96285.00;;;;5009396;28;20449;-68
2023/03/26 03:33:18;;;;;;;0.50;0.50;;;0.80;99.90;1.20;96274.00;;;;5011050;28;20429;-69
2023/03/26 03:36:09;;;;;;;0.60;0.60;;;0.70;99.90;1.40;96271.00;;;;5009340;28;20449;-68
2023/03/26 03:39:01;;;;;;;0.90;0.80;;;0.70;99.90;1.70;96276.00;;;;5007716;28;20430;-68
2023/03/26 03:41:51;;;;;;;2.47;0.60;;;0.70;99.90;1.60;96279.00;;;;5011423;28;20442;-68
2023/03/26 03:44:40;;;;;;;0.60;0.60;;;0.70;99.90;1.50;96276.00;;;;5014761;28;20791;-68
2023/03/26 03:47:28;;;;;;;0.70;0.60;;;0.70;99.90;1.70;96282.00;;;;5003291;28;20437;-68
2023/03/26 03:50:17;;;;;;;0.80;0.80;;;0.70;99.90;1.70;96278.00;;;;5007046;28;20473;-68
2023/03/26 03:53:06;;;;;;;0.60;0.60;;;0.70;99.90;1.70;96281.00;;;;5009840;28;20465;-68
2023/03/26 03:55:55;;;;;;;0.60;0.60;;;0.80;99.90;1.50;96281.00;;;;5014074;28;20488;-69
2023/03/26 03:58:46;;;;;;;0.67;0.67;;;0.70;99.90;1.20;96257.00;;;;5014536;28;20444;-68
2023/03/26 04:01:35;;;;;;;0.73;0.73;;;0.70;99.90;1.00;96278.00;;;;5011508;28;20875;-68
2023/03/26 04:04:23;;;;;;;0.40;0.40;;;0.60;99.90;1.50;96287.00;;;;5007280;28;20966;-68
2023/03/26 04:07:12;;;;;;;0.63;0.63;;;0.60;99.90;1.50;96281.00;;;;5009809;28;20422;-68
2023/03/26 04:10:02;;;;;;;0.60;0.60;;;0.60;99.90;1.50;96283.00;;;;5009424;28;20535;-70
2023/03/26 04:12:51;;;;;;;4.13;1.03;;;0.60;99.90;1.90;96291.00;;;;5002304;28;20422;-69
2023/03/26 04:15:42;;;;;;;0.70;0.70;;;0.60;99.90;2.00;96297.00;;;;5004774;28;20495;-69
2023/03/26 04:18:32;;;;;;;0.73;0.73;;;0.70;99.90;2.10;96299.00;;;;5003628;28;20422;-68
2023/03/26 04:21:20;;;;;;;1.23;1.00;;;0.80;99.90;2.20;96304.00;;;;5004319;28;20564;-68
2023/03/26 04:24:11;;;;;;;1.97;1.60;;;0.90;99.90;2.10;96294.00;;;;5006235;28;20425;-68
2023/03/26 04:27:00;;;;;;;0.90;0.87;;;0.70;99.90;2.10;96295.00;;;;5011013;28;20488;-69
2023/03/26 04:29:51;;;;;;;0.80;0.80;;;;;2.20;96303.00;;;;5007035;28;20472;-69
2023/03/26 04:32:41;;;;;;;0.60;0.60;;;;;2.00;96296.00;;;;5005308;28;20535;-68
2023/03/26 04:35:34;;;;;;;1.10;1.00;;;;;1.60;96291.00;;;;5011136;28;20433;-68
2023/03/26 04:38:23;;;;;;;0.60;0.60;;;;;1.30;96293.00;;;;5005388;28;20438;-69
2023/03/26 04:41:13;;;;;;;0.63;0.63;;;;;1.60;96278.00;;;;5014167;28;20524;-69
2023/03/26 04:44:02;;;;;;;0.90;0.90;;;;;1.70;96280.00;;;;5011936;28;20463;-69
2023/03/26 04:46:54;;;;;;;1.00;0.97;;;;;1.60;96266.00;;;;5012986;28;20488;-68
2023/03/26 04:49:44;;;;;;;0.57;0.57;;;;;1.20;96275.00;;;;4997792;28;20847;-69
2023/03/26 04:52:33;;;;;;;0.90;0.90;;;;;1.30;96266.00;;;;5007984;28;20496;-69
2023/03/26 04:55:25;;;;;;;0.63;0.63;;;;;0.90;96272.00;;;;5006224;28;20438;-69
2023/03/26 04:58:14;;;;;;;5.40;1.00;;;;;0.90;96268.00;;;;5007596;28;20441;-68
2023/03/26 05:01:04;;;;;;;0.77;0.77;;;;;1.10;96266.00;;;;5003963;28;20845;-68
2023/03/26 05:03:53;;;;;;;0.87;0.83;;;;;1.40;96264.00;;;;5009137;28;20507;-69
2023/03/26 05:06:43;;;;;;;0.70;0.70;;;;;1.30;96264.00;;;;5005588;28;20535;-69
2023/03/26 05:09:32;;;;;;;0.60;0.60;;;;;1.10;96266.00;;;;5004227;28;20866;-69
2023/03/26 05:12:21;;;;;;;2.30;1.10;;;;;1.40;96263.00;;;;5008630;28;20485;-69
2023/03/26 05:15:12;;;;;;;0.67;0.67;;;;;1.40;96272.00;;;;5008668;28;20476;-69
2023/03/26 05:18:01;;;;;;;0.70;0.70;;;;;1.40;96246.00;;;;5008632;28;20428;-68
2023/03/26 05:20:50;;;;;;;0.70;0.70;;;;;1.20;96250.00;;;;5004690;28;20490;-69
2023/03/26 05:23:41;;;;;;;0.83;0.80;;;;;1.30;96250.00;;;;5003340;28;20441;-69
2023/03/26 05:26:30;;;;;;;0.50;0.50;;;;;1.20;96247.00;;;;4998234;28;20458;-69
2023/03/26 05:29:21;;;;;;;0.50;0.50;;;;;1.60;96250.00;;;;5003931;28;20540;-68
2023/03/26 05:32:10;;;;;;;0.73;0.73;;;;;2.00;96251.00;;;;5009548;28;20437;-68
2023/03/26 05:34:59;;;;;;;1.27;1.17;;;;;2.20;96253.00;;;;5008232;28;20490;-68
2023/03/26 05:37:50;;;;;;;0.77;0.77;;;;;2.40;96248.00;;;;5002066;28;20492;-68
2023/03/26 05:40:40;;;;;;;0.70;0.70;;;;;2.40;96250.00;;;;5009386;28;20464;-68
2023/03/26 05:43:29;;;;;;;1.37;0.70;;;;;2.50;96247.00;;;;5007159;28;20466;-68
2023/03/26 05:46:19;;;;;;;1.53;0.80;;;;;2.20;96239.00;;;;5006459;28;20960;-68
2023/03/26 05:49:08;;;;;;;0.83;0.83;;;;;2.40;96251.00;;;;5004846;28;20429;-68
2023/03/26 05:51:56;;;;;;;0.90;0.90;;;;;2.60;96248.00;;;;5004382;28;20429;-68
2023/03/26 05:54:46;;;;;;;1.50;0.83;;;;;2.70;96249.00;;;;5004532;28;20795;-69
2023/03/26 05:57:36;;;;;;;1.27;1.17;;;;;2.80;96253.00;;;;5004816;28;20433;-68
2023/03/26 06:00:26;;;;;;;1.10;1.00;;;;;2.50;96241.00;;;;5011228;28;20445;-68
2023/03/26 06:03:15;;;;;;;0.93;0.93;;;;;2.40;96244.00;;;;5004198;28;20488;-68
2023/03/26 06:06:06;;;;;;;0.93;0.93;;;;;2.30;96247.00;;;;5002025;28;20433;-68
2023/03/26 06:08:55;;;;;;;1.30;1.20;;;;;2.60;96242.00;;;;5004762;28;20454;-69
2023/03/26 06:11:44;;;;;;;0.73;0.73;;;;;2.80;96232.00;;;;5002430;28;20445;-68
2023/03/26 06:14:35;;;;;;;0.87;0.87;;;;;2.40;96237.00;;;;5008247;28;20433;-69
2023/03/26 06:17:24;;;;;;;0.40;0.40;;;;;2.40;96218.00;;;;5009889;28;20600;-69
2023/03/26 06:20:13;;;;;;;0.87;0.73;;;;;2.20;96219.00;;;;4996516;28;20454;-70
2023/03/26 06:23:02;;;;;;;0.73;0.73;;;;;2.50;96219.00;;;;5002861;28;20936;-69
2023/03/26 06:25:51;;;;;;;0.90;0.80;;;;;2.60;96219.00;;;;5009088;28;20477;-68
2023/03/26 06:28:40;;;;;;;0.80;0.80;;;;;2.70;96212.00;;;;5007852;28;20433;-69
2023/03/26 06:31:31;;;;;;;0.67;0.67;;;;;3.00;96199.00;;;;5008129;28;20461;-68
2023/03/26 06:34:20;;;;;;;1.60;0.50;;;;;3.00;96208.00;;;;5006133;28;20425;-69
2023/03/26 06:37:09;;;;;;;0.53;0.53;;;;;2.20;96208.00;;;;5004680;28;20461;-70
2023/03/26 06:39:58;;;;;;;1.87;1.10;;;;;2.50;96203.00;;;;5009457;28;20449;-70
2023/03/26 06:42:48;;;;;;;3.43;3.07;;;;;2.50;96210.00;;;;5000424;28;20518;-70
2023/03/26 06:45:37;;;;;;;5.77;1.80;;;;;2.60;96216.00;;;;5001347;28;20445;-68
2023/03/26 06:48:28;;;;;;;1.00;1.00;;;;;2.90;96215.00;;;;4997334;28;20442;-69
2023/03/26 06:51:17;;;;;;;0.60;0.60;;;;;3.00;96218.00;;;;4996109;28;20472;-69
2023/03/26 06:54:06;;;;;;;1.87;1.57;;;;;3.10;96212.00;;;;5002326;28;20436;-69
2023/03/26 06:56:55;;;;;;;1.40;1.20;;;;;3.60;96213.00;;;;4998553;28;20517;-69
2023/03/26 06:59:44;;;;;;;2.93;1.60;;;;;3.80;96215.00;;;;5000333;28;20480;-69
2023/03/26 07:02:33;;;;;;;1.07;1.07;;;;;3.50;96212.00;;;;4999210;28;20491;-70
2023/03/26 07:05:23;;;;;;;3.03;2.73;;;;;3.60;96204.00;;;;4995269;28;20445;-69
2023/03/26 07:08:12;;;;;;;1.67;1.57;;;;;3.60;96193.00;;;;5001098;28;20429;-71
2023/03/26 07:11:01;;;;;;;3.00;1.40;;;;;3.50;96198.00;;;;4999206;28;20492;-70
2023/03/26 07:13:50;;;;;;;1.80;1.70;;;;;3.90;96211.00;;;;4998122;28;20516;-70
2023/03/26 07:16:39;;;;;;;1.97;1.63;;;;;4.10;96190.00;;;;5002671;28;20449;-70
2023/03/26 07:19:28;;;;;;;2.53;1.90;;;;;4.10;96209.00;;;;5007940;28;20461;-70
2023/03/26 07:22:21;;;;;;;1.53;1.43;;;;;4.20;96211.00;;;;4998699;28;20481;-69
2023/03/26 07:25:12;;;;;;;2.13;1.83;;;;;4.10;96208.00;;;;5002503;28;20507;-70
2023/03/26 07:28:06;;;;;;;2.67;2.20;;;;;4.60;96214.00;;;;5005241;28;20573;-69
2023/03/26 07:31:20;;;;;;;5.20;2.10;;;;;4.60;96212.00;;;;5020770;28;20492;-69
2023/03/26 07:34:17;;;;;;;2.80;2.60;;;;;5.10;96198.00;;;;5008012;28;20460;-70
2023/03/26 07:37:16;;;;;;;2.80;2.60;;;;;5.70;96201.00;;;;5010051;28;20421;-70
2023/03/26 07:40:12;;;;;;;3.50;2.83;;;;;6.00;96208.00;;;;5003805;28;21055;-70
2023/03/26 07:43:06;;;;;;;3.47;3.17;;;;;6.20;96223.00;;;;5003222;28;20458;-70
2023/03/26 07:45:56;;;;;;;3.73;2.80;;;;;6.10;96212.00;;;;5008366;28;20242;-70
2023/03/26 07:48:47;;;;;;;3.23;2.77;;;;;6.50;96203.00;;;;4999939;28;20206;-70
2023/03/26 07:51:37;;;;;;;6.43;3.50;;;;;6.80;96195.00;;;;5002435;28;20229;-70
2023/03/26 07:54:26;;;;;;;4.73;3.00;;;;;7.00;96194.00;;;;5011692;28;20429;-70
2023/03/26 07:57:24;;;;;;;4.43;3.00;;;;;7.00;96183.00;;;;5005772;28;20208;-70
2023/03/26 08:00:18;;;;;;;3.37;3.00;;;;;7.30;96187.00;;;;5009200;28;20233;-70
2023/03/26 08:03:24;;;;;;;3.83;3.10;;;;;7.30;96177.00;;;;5007379;28;20331;-70
2023/03/26 08:06:17;;;;;;;5.63;2.97;;;;;7.40;96172.00;;;;5006817;28;20253;-70
2023/03/26 08:09:13;;;;;;;4.53;2.87;;;;;7.40;96169.00;;;;5007002;28;20288;-70
2023/03/26 08:12:07;;;;;;;14.03;11.47;;;;;7.20;96163.00;;;;5008829;28;20225;-70
2023/03/26 08:15:04;;;;;;;11.87;7.40;;;;;7.10;96162.00;;;;5005304;28;20284;-70
2023/03/26 08:17:57;;;;;;;6.30;4.93;;;;;7.00;96168.00;;;;5002167;28;20353;-69
2023/03/26 08:20:47;;;;;;;6.87;3.80;;;;;7.10;96165.00;;;;5008573;28;20276;-70
2023/03/26 08:23:39;;;;;;;6.00;3.53;;;;;7.30;96146.00;;;;5013178;28;20205;-69
2023/03/26 08:26:35;;;;;;;4.60;3.67;;;;;7.30;96153.00;;;;5006437;28;20314;-69
2023/03/26 08:29:29;;;;;;;4.87;3.23;;;;;7.00;96153.00;;;;5000603;28;20252;-69
2023/03/26 08:32:21;;;;;;;3.30;2.60;;;;;7.00;96147.00;;;;4996815;28;20289;-70
2023/03/26 08:35:12;;;;;;;7.20;3.43;;;;;7.20;96144.00;;;;5007115;28;20202;-69
2023/03/26 08:38:01;;;;;;;3.70;3.13;;;;;7.40;96140.00;;;;5007277;28;20213;-69
2023/03/26 08:41:23;;;;;;;7.10;3.40;;;;;7.50;96131.00;;;;5011528;28;20250;-70
2023/03/26 08:45:00;;;;;;;3.30;2.87;;;;;8.00;96133.00;;;;5009690;28;20210;-70
2023/03/26 08:48:29;;;;;;;5.07;3.03;;;;;8.60;96130.00;;;;5006005;28;20213;-70
2023/03/26 08:52:06;;;;;;;3.03;2.60;;;;;8.80;96117.00;;;;5006279;28;20233;-70
2023/03/26 08:55:31;;;;;;;3.50;3.17;;;;;8.70;96103.00;;;;4982449;28;20206;-70
2023/03/26 08:58:44;;;;;;;2.47;2.23;;;;;9.50;96097.00;;;;5003761;28;20217;-71
2023/03/26 09:02:04;;;;;;;4.97;3.20;;;;;9.20;96094.00;;;;5008291;28;20278;-70
2023/03/26 09:05:30;;;;;;;2.63;2.30;;;;;9.20;96082.00;;;;5010111;28;20225;-70
2023/03/26 09:09:11;;;;;;;3.10;2.10;;;;;9.50;96087.00;;;;5000932;28;20198;-70
2023/03/26 09:12:15;;;;;;;4.37;2.40;;;;;9.40;96084.00;;;;5003485;28;20321;-70
2023/03/26 09:15:43;;;;;;;2.30;2.10;;;;;9.90;96085.00;;;;5000635;28;20210;-70
2023/03/26 09:18:53;;;;;;;9.77;5.20;;;;;10.60;96089.00;;;;5005193;28;20771;-70
2023/03/26 09:22:14;;;;;;;7.80;2.40;;;;;10.90;96079.00;;;;5003142;28;20201;-71
2023/03/26 09:25:26;;;;;;;7.47;2.83;;;;;11.70;96075.00;;;;5000720;28;20250;-69
2023/03/26 09:28:50;;;;;;;5.40;2.87;;;;;11.60;96064.00;;;;5011556;28;20230;-70
2023/03/26 09:32:02;;;;;;;3.10;2.13;;;;;12.30;96048.00;;;;4997505;28;20271;-70
2023/03/26 09:35:13;;;;;;;4.17;2.40;;;;;12.50;96040.00;;;;4999143;28;20229;-70
2023/03/26 09:38:11;;;;;;;3.20;2.47;;;;;12.10;96041.00;;;;5005988;28;20213;-70
2023/03/26 09:41:04;;;;;;;2.43;2.10;;;;;12.40;96031.00;;;;5004360;28;20289;-70
2023/03/26 09:44:15;;;;;;;3.60;2.47;;;;;12.20;96028.00;;;;5004170;28;20275;-69
2023/03/26 09:47:27;;;;;;;2.20;1.93;;;;;12.60;96032.00;;;;5003207;28;20201;-70
2023/03/26 09:50:35;;;;;;;2.23;2.03;;;;;12.60;96026.00;;;;4996045;28;20234;-70
2023/03/26 09:53:38;;;;;;;3.27;2.07;;;;;12.60;96032.00;;;;5006370;28;20213;-70
2023/03/26 09:56:37;;;;;;;3.87;2.77;;;;;12.60;96023.00;;;;5006058;28;20201;-70
2023/03/26 09:59:48;;;;;;;2.77;2.13;;;;;12.70;96010.00;;;;5002177;28;20700;-70
2023/03/26 10:02:52;;;;;;;2.53;1.27;;;;;12.90;96008.00;;;;4997069;28;20600;-70
2023/03/26 10:06:02;;;;;;;3.60;2.13;;;;;13.00;95998.00;;;;5001729;28;20208;-70
2023/03/26 10:09:03;;;;;;;2.20;2.00;;;;;13.20;95986.00;;;;5001311;28;20234;-70
2023/03/26 10:12:12;;;;;;;6.87;4.77;;;;;13.30;95981.00;;;;5001686;28;20238;-71
2023/03/26 10:15:18;;;;;;;16.50;7.03;;;;;13.30;95977.00;;;;5007290;28;20210;-71
2023/03/26 10:18:16;;;;;;;3.90;2.07;;;;;13.00;95971.00;;;;5003029;28;20206;-70
2023/03/26 10:21:07;;;;;;;3.50;2.40;;;;;13.80;95966.00;;;;5005500;28;20225;-70
2023/03/26 10:24:11;;;;;;;3.00;1.70;;;;;14.40;95966.00;;;;5000842;28;20207;-71
2023/03/26 10:27:27;;;;;;;5.23;2.50;;;;;14.50;95959.00;;;;4999806;28;20268;-71
2023/03/26 10:30:30;;;;;;;2.07;1.53;;;;;14.40;95948.00;;;;4997127;28;20231;-70
2023/03/26 10:33:30;;;;;;;4.57;3.30;;;;;15.10;95942.00;;;;4999675;28;20225;-71
2023/03/26 10:36:29;;;;;;;6.23;2.40;;;;;15.60;95947.00;;;;4998896;28;20205;-71
2023/03/26 10:39:31;;;;;;;4.10;1.97;;;;;15.90;95953.00;;;;4995650;28;20213;-71
2023/03/26 10:42:35;;;;;;;6.10;1.83;;;;;16.00;95948.00;;;;5001334;28;20689;-71
2023/03/26 10:45:49;;;;;;;2.90;1.27;;;;;16.20;95938.00;;;;5005537;28;20283;-71
2023/03/26 10:48:51;;;;;;;1.97;1.47;;;;;16.20;95961.00;;;;5002051;28;20590;-71
2023/03/26 10:51:49;;;;;;;1.33;1.20;;;;;15.90;95958.00;;;;5002408;28;20218;-71
2023/03/26 10:54:46;;;;;;;1.93;1.00;;;;;16.00;95952.00;;;;5004055;28;20198;-70
2023/03/26 10:57:40;;;;;;;1.50;1.07;;;;;16.20;95950.00;;;;5000200;28;20583;-70
2023/03/26 11:00:30;;;;;;;2.23;2.03;;;;;16.10;95945.00;;;;5001898;28;20256;-70
2023/03/26 11:03:50;;;;;;;1.43;1.33;;;;;16.20;95937.00;;;;5005855;28;20276;-70
2023/03/26 11:06:45;;;;;;;2.00;1.57;;;;;15.30;95918.00;;;;5005317;28;20702;-69
2023/03/26 11:09:40;;;;;;;3.03;1.73;;;;;15.80;95916.00;;;;4996890;28;20762;-69
2023/03/26 11:12:33;;;;;;;2.63;1.77;;;;;15.50;95913.00;;;;5000423;28;20234;-69
2023/03/26 11:15:26;;;;;;;4.67;1.90;;;;;16.30;95908.00;;;;5004047;28;20587;-69
2023/03/26 11:18:19;;;;;;;2.53;1.47;;;;;16.00;95904.00;;;;4998676;28;20198;-69
2023/03/26 11:21:14;;;;;;;3.53;1.53;;;;;16.50;95913.00;;;;4996708;28;20228;-69
2023/03/26 11:24:24;;;;;;;3.67;2.10;;;;;16.40;95901.00;;;;5003408;28;20203;-69
2023/03/26 11:27:17;;;;;;;2.30;2.10;;;;;16.10;95887.00;;;;5000652;28;20241;-69
2023/03/26 11:30:18;;;;;;;3.03;1.23;;;;;15.60;95875.00;;;;5000660;28;20234;-70
2023/03/26 11:33:10;;;;;;;5.23;1.60;;;;;16.30;95867.00;;;;5002313;28;20261;-70
2023/03/26 11:36:03;;;;;;;3.07;1.50;;;;;17.00;95860.00;;;;5003370;28;20209;-70
2023/03/26 11:38:56;;;;;;;1.73;1.50;;;;;17.50;95849.00;;;;4996395;28;20214;-70
2023/03/26 11:41:45;;;;;;;1.97;1.87;;;;;18.10;95848.00;;;;4995288;28;20237;-70
2023/03/26 11:44:36;;;;;;;1.90;1.67;;;;;18.00;95839.00;;;;5005021;28;20202;-71
2023/03/26 11:47:31;;;;;;;3.97;1.63;;;;;16.00;95805.00;;;;5001315;28;20260;-69
2023/03/26 11:50:23;;;;;;;2.17;1.97;;;;;15.00;95806.00;;;;5001506;28;20244;-71
2023/03/26 11:53:13;;;;;;;5.17;2.50;;;;;15.10;95811.00;;;;5003480;28;20931;-71
2023/03/26 11:56:07;;;;;;;6.73;1.60;;;;;16.00;95796.00;;;;5001681;28;20202;-70
2023/03/26 11:59:00;;;;;;;2.27;1.80;;;;;16.50;95792.00;;;;5001136;28;20198;-73
2023/03/26 12:01:51;;;;;;;4.40;1.63;;;;;16.90;95783.00;;;;5003103;28;20206;-72
2023/03/26 12:04:42;;;;;;;2.67;2.10;;;;;17.30;95801.00;;;;5001059;28;20199;-70
2023/03/26 12:07:33;;;;;;;3.33;2.50;;;;;17.40;95794.00;;;;5005988;28;20206;-71
2023/03/26 12:10:25;;;;;;;2.43;2.23;;;;;17.40;95779.00;;;;5005107;28;20268;-70
2023/03/26 12:13:36;;;;;;;2.63;2.10;;;;;16.50;95774.00;;;;5006262;28;20623;-71
2023/03/26 12:16:26;;;;;;;4.20;2.40;;;;;16.30;95764.00;;;;5007992;28;20232;-69
2023/03/26 12:19:21;;;;;;;4.03;2.33;;;;;17.50;95768.00;;;;5007004;28;20266;-72
2023/03/26 12:22:29;;;;;;;3.50;2.47;;;;;18.30;95764.00;;;;5001032;28;22292;-72
2023/03/26 12:25:20;;;;;;;2.87;2.47;;;;;18.00;95782.00;;;;5008354;28;20253;-71
2023/03/26 12:28:18;;;;;;;2.93;2.63;;;;;16.70;95775.00;;;;5006117;28;20576;-71
2023/03/26 12:31:17;;;;;;;1.97;1.73;;;;;16.00;95773.00;;;;5003366;28;20236;-73
2023/03/26 12:34:12;;;;;;;2.63;2.43;;;;;16.40;95767.00;;;;5006838;28;20265;-72
2023/03/26 12:37:02;;;;;;;4.60;2.43;;;;;15.00;95750.00;;;;5004896;28;20701;-73
2023/03/26 12:40:10;;;;;;;3.60;2.00;;;;;16.70;95738.00;;;;5006318;28;20230;-73
2023/03/26 12:43:03;;;;;;;3.40;2.47;;;;;17.10;95735.00;;;;5006665;28;20276;-74
2023/03/26 12:45:57;;;;;;;2.37;2.17;;;;;15.70;95735.00;;;;5001823;28;20206;-73
2023/03/26 12:48:47;;;;;;;2.70;2.50;;;;;16.00;95728.00;;;;5007430;28;20228;-71
2023/03/26 12:51:42;;;;;;;2.97;2.53;;;;;16.60;95719.00;;;;5002969;28;20202;-71
2023/03/26 12:54:41;;;;;;;3.10;2.80;;;;;17.40;95718.00;;;;5003825;28;20281;-71
2023/03/26 12:57:37;;;;;;;3.37;2.50;;;;;17.90;95710.00;;;;5005107;28;20202;-71
2023/03/26 13:00:31;;;;;;;4.37;2.80;;;;;18.50;95681.00;;;;5009049;28;20606;-71
2023/03/26 13:03:41;;;;;;;3.70;2.43;;;;;19.10;95704.00;;;;5004026;28;20197;-71
2023/03/26 13:06:39;;;;;;;2.80;2.50;;;;;20.00;95671.00;;;;5006940;28;20206;-73
2023/03/26 13:09:38;;;;;;;4.57;2.77;;;;;20.70;95699.00;;;;5008631;28;20257;-71
2023/03/26 13:12:34;;;;;;;5.30;3.27;;;;;21.00;95678.00;;;;5007930;28;20202;-71
2023/03/26 13:15:25;;;;;;;3.53;2.80;;;;;20.90;95696.00;;;;5008008;28;20605;-70
2023/03/26 13:18:23;;;;;;;4.33;2.60;;;;;20.60;95695.00;;;;5008351;28;20301;-70
2023/03/26 13:21:16;;;;;;;2.70;2.50;;;;;20.20;95699.00;;;;5009938;28;20222;-70
2023/03/26 13:24:12;;;;;;;5.23;2.70;;;;;18.70;95687.00;;;;5004842;28;20799;-68
2023/03/26 13:27:10;;;;;;;2.97;2.67;;;;;18.80;95689.00;;;;5008185;28;20257;-69
2023/03/26 13:30:02;;;;;;;3.90;3.07;;;;;18.90;95682.00;;;;5011426;28;20229;-69
2023/03/26 13:33:06;;;;;;;3.57;2.60;;;;;18.90;95682.00;;;;5006934;28;20260;-69
2023/03/26 13:36:00;;;;;;;3.03;2.70;;;;;18.80;95681.00;;;;5002978;28;20717;-69
2023/03/26 13:39:06;;;;;;;3.00;2.70;;;;;18.50;95671.00;;;;4996109;28;20206;-69
2023/03/26 13:42:17;;;;;;;3.70;2.93;;;;;18.20;95671.00;;;;4999709;28;20209;-69
2023/03/26 13:45:14;;;;;;;7.77;2.73;;;;;18.00;95655.00;;;;5005961;28;20206;-69
2023/03/26 13:48:05;;;;;;;4.40;3.67;;;;;17.90;95657.00;;;;5003762;28;20202;-69
2023/03/26 13:51:02;;;;;;;3.60;3.13;;;;;18.00;95661.00;;;;5007484;28;20460;-71
2023/03/26 13:53:55;;;;;;;4.67;2.50;;;;;17.90;95652.00;;;;5004355;28;20237;-71
2023/03/26 13:56:47;;;;;;;2.97;2.73;;;;;17.70;95641.00;;;;5004759;28;20276;-71
2023/03/26 13:59:40;;;;;;;3.17;2.73;;;;;17.40;95643.00;;;;5003044;28;20233;-71
2023/03/26 14:02:33;;;;;;;4.17;3.20;;;;;17.30;95640.00;;;;5007092;28;20213;-70
2023/03/26 14:05:26;;;;;;;3.27;2.93;;;;;17.20;95641.00;;;;5009997;28;20213;-71
2023/03/26 14:08:20;;;;;;;4.17;3.13;;;;;17.20;95640.00;;;;5007207;28;20232;-71
2023/03/26 14:11:11;;;;;;;4.23;3.53;;;;;16.70;95626.00;;;;5006010;28;20264;-71